sensor_id;sensor_type;location;lat;lon;timestamp;pressure;altitude;pressure_sealevel;temperature;humidity
71857;BME280;63344;46.980;28.882;2023-03-18T00:00:31;101487.94;;;3.27;85.77
71857;BME280;63344;46.980;28.882;2023-03-18T00:03:14;101475.66;;;3.25;86.06
71857;BME280;63344;46.980;28.882;2023-03-18T00:05:42;101488.78;;;3.20;86.45
71857;BME280;63344;46.980;28.882;2023-03-18T00:08:09;101477.41;;;3.21;86.48
71857;BME280;63344;46.980;28.882;2023-03-18T00:10:37;101482.69;;;3.26;86.42
71857;BME280;63344;46.980;28.882;2023-03-18T00:13:05;101477.44;;;3.24;86.55
71857;BME280;63344;46.980;28.882;2023-03-18T00:15:34;101477.44;;;3.27;86.60
71857;BME280;63344;46.980;28.882;2023-03-18T00:18:01;101476.56;;;3.24;86.50
71857;BME280;63344;46.980;28.882;2023-03-18T00:20:28;101475.66;;;3.25;86.61
71857;BME280;63344;46.980;28.882;2023-03-18T00:23:06;101472.19;;;3.29;86.71
71857;BME280;63344;46.980;28.882;2023-03-18T00:25:36;101479.19;;;3.28;86.31
71857;BME280;63344;46.980;28.882;2023-03-18T00:28:04;101473.06;;;3.26;86.68
71857;BME280;63344;46.980;28.882;2023-03-18T00:30:35;101479.19;;;3.27;86.49
71857;BME280;63344;46.980;28.882;2023-03-18T00:33:03;101478.28;;;3.25;86.93
71857;BME280;63344;46.980;28.882;2023-03-18T00:35:31;101480.06;;;3.26;87.23
71857;BME280;63344;46.980;28.882;2023-03-18T00:37:59;101480.03;;;3.23;87.01
71857;BME280;63344;46.980;28.882;2023-03-18T00:40:26;101470.41;;;3.22;87.36
71857;BME280;63344;46.980;28.882;2023-03-18T00:43:09;101477.44;;;3.26;87.47
71857;BME280;63344;46.980;28.882;2023-03-18T00:45:39;101473.00;;;3.18;87.63
71857;BME280;63344;46.980;28.882;2023-03-18T00:48:07;101473.03;;;3.20;87.88
71857;BME280;63344;46.980;28.882;2023-03-18T00:50:35;101481.78;;;3.21;88.06
71857;BME280;63344;46.980;28.882;2023-03-18T00:53:03;101465.97;;;3.11;88.78
71857;BME280;63344;46.980;28.882;2023-03-18T00:55:30;101473.00;;;3.18;88.88
71857;BME280;63344;46.980;28.882;2023-03-18T00:57:58;101479.97;;;3.13;89.06
71857;BME280;63344;46.980;28.882;2023-03-18T01:00:29;101480.03;;;3.19;89.36
71857;BME280;63344;46.980;28.882;2023-03-18T01:02:56;101476.53;;;3.21;89.10
71857;BME280;63344;46.980;28.882;2023-03-18T01:05:23;101470.38;;;3.18;89.06
71857;BME280;63344;46.980;28.882;2023-03-18T01:07:50;101468.66;;;3.22;89.00
71857;BME280;63344;46.980;28.882;2023-03-18T01:10:19;101467.75;;;3.18;89.39
71857;BME280;63344;46.980;28.882;2023-03-18T01:12:46;101468.66;;;3.21;89.44
71857;BME280;63344;46.980;28.882;2023-03-18T01:15:16;101474.81;;;3.29;89.67
71857;BME280;63344;46.980;28.882;2023-03-18T01:17:45;101470.41;;;3.25;89.78
71857;BME280;63344;46.980;28.882;2023-03-18T01:20:16;101472.19;;;3.29;89.84
71857;BME280;63344;46.980;28.882;2023-03-18T01:22:44;101468.72;;;3.30;89.91
71857;BME280;63344;46.980;28.882;2023-03-18T01:25:13;101467.84;;;3.34;89.93
71857;BME280;63344;46.980;28.882;2023-03-18T01:27:42;101468.72;;;3.34;89.45
71857;BME280;63344;46.980;28.882;2023-03-18T01:30:11;101470.47;;;3.35;89.22
71857;BME280;63344;46.980;28.882;2023-03-18T01:32:39;101475.72;;;3.37;89.14
71857;BME280;63344;46.980;28.882;2023-03-18T01:35:10;101474.84;;;3.36;89.25
71857;BME280;63344;46.980;28.882;2023-03-18T01:37:38;101466.09;;;3.36;89.24
71857;BME280;63344;46.980;28.882;2023-03-18T01:40:07;101470.50;;;3.42;89.37
71857;BME280;63344;46.980;28.882;2023-03-18T01:42:36;101477.50;;;3.43;88.95
71857;BME280;63344;46.980;28.882;2023-03-18T01:45:19;101471.38;;;3.45;89.33
71857;BME280;63344;46.980;28.882;2023-03-18T01:47:47;101463.50;;;3.45;89.05
71857;BME280;63344;46.980;28.882;2023-03-18T01:50:23;101467.03;;;3.49;89.37
71857;BME280;63344;46.980;28.882;2023-03-18T01:52:59;101467.06;;;3.52;89.35
71857;BME280;63344;46.980;28.882;2023-03-18T01:55:29;101475.78;;;3.55;89.29
71857;BME280;63344;46.980;28.882;2023-03-18T01:57:58;101473.19;;;3.57;89.53
71857;BME280;63344;46.980;28.882;2023-03-18T02:00:27;101458.31;;;3.57;89.22
71857;BME280;63344;46.980;28.882;2023-03-18T02:02:55;101462.72;;;3.62;89.17
71857;BME280;63344;46.980;28.882;2023-03-18T02:05:26;101467.97;;;3.65;89.03
71857;BME280;63344;46.980;28.882;2023-03-18T02:07:53;101466.22;;;3.64;88.79
71857;BME280;63344;46.980;28.882;2023-03-18T02:10:25;101471.50;;;3.70;88.71
71857;BME280;63344;46.980;28.882;2023-03-18T02:13:06;101477.63;;;3.75;88.28
71857;BME280;63344;46.980;28.882;2023-03-18T02:15:39;101471.50;;;3.76;87.93
71857;BME280;63344;46.980;28.882;2023-03-18T02:18:15;101484.63;;;3.79;87.00
71857;BME280;63344;46.980;28.882;2023-03-18T02:24:01;101477.66;;;3.79;87.27
71857;BME280;63344;46.980;28.882;2023-03-18T02:26:50;101480.28;;;3.83;86.86
71857;BME280;63344;46.980;28.882;2023-03-18T02:29:19;101478.50;;;3.77;85.86
71857;BME280;63344;46.980;28.882;2023-03-18T02:31:48;101475.03;;;3.78;85.78
71857;BME280;63344;46.980;28.882;2023-03-18T02:34:17;101482.91;;;3.79;85.62
71857;BME280;63344;46.980;28.882;2023-03-18T02:36:45;101482.03;;;3.76;85.10
71857;BME280;63344;46.980;28.882;2023-03-18T02:39:14;101471.50;;;3.70;85.40
71857;BME280;63344;46.980;28.882;2023-03-18T02:41:42;101483.75;;;3.74;85.30
71857;BME280;63344;46.980;28.882;2023-03-18T02:44:11;101485.50;;;3.75;85.51
71857;BME280;63344;46.980;28.882;2023-03-18T02:49:13;101477.63;;;3.75;84.97
71857;BME280;63344;46.980;28.882;2023-03-18T02:51:41;101481.16;;;3.78;85.44
71857;BME280;63344;46.980;28.882;2023-03-18T02:54:21;101484.63;;;3.79;85.04
71857;BME280;63344;46.980;28.882;2023-03-18T02:56:50;101484.66;;;3.76;84.81
71857;BME280;63344;46.980;28.882;2023-03-18T02:59:18;101487.28;;;3.76;85.01
71857;BME280;63344;46.980;28.882;2023-03-18T03:01:49;101490.78;;;3.84;84.76
71857;BME280;63344;46.980;28.882;2023-03-18T03:04:20;101481.16;;;3.82;84.88
71857;BME280;63344;46.980;28.882;2023-03-18T03:06:48;101464.50;;;3.81;85.46
71857;BME280;63344;46.980;28.882;2023-03-18T03:09:15;101469.75;;;3.81;85.41
71857;BME280;63344;46.980;28.882;2023-03-18T03:11:44;101476.78;;;3.91;85.04
71857;BME280;63344;46.980;28.882;2023-03-18T03:14:15;101488.19;;;3.95;85.11
71857;BME280;63344;46.980;28.882;2023-03-18T03:16:43;101485.56;;;3.93;85.16
71857;BME280;63344;46.980;28.882;2023-03-18T03:19:10;101491.69;;;3.97;84.67
71857;BME280;63344;46.980;28.882;2023-03-18T03:21:38;101486.47;;;3.95;84.82
71857;BME280;63344;46.980;28.882;2023-03-18T03:24:06;101493.47;;;4.03;84.42
71857;BME280;63344;46.980;28.882;2023-03-18T03:26:34;101495.22;;;4.02;83.87
71857;BME280;63344;46.980;28.882;2023-03-18T03:29:03;101477.69;;;3.96;83.65
71857;BME280;63344;46.980;28.882;2023-03-18T03:31:31;101483.84;;;3.95;83.50
71857;BME280;63344;46.980;28.882;2023-03-18T03:33:58;101484.69;;;3.96;83.89
71857;BME280;63344;46.980;28.882;2023-03-18T03:36:26;101477.69;;;3.98;83.61
71857;BME280;63344;46.980;28.882;2023-03-18T03:38:53;101473.31;;;3.95;83.23
71857;BME280;63344;46.980;28.882;2023-03-18T03:41:21;101484.69;;;3.99;83.41
71857;BME280;63344;46.980;28.882;2023-03-18T03:43:48;101477.72;;;3.99;83.17
71857;BME280;63344;46.980;28.882;2023-03-18T03:46:16;101475.06;;;3.96;83.36
71857;BME280;63344;46.980;28.882;2023-03-18T03:48:43;101472.41;;;3.93;83.11
71857;BME280;63344;46.980;28.882;2023-03-18T03:51:11;101474.19;;;3.99;82.99
71857;BME280;63344;46.980;28.882;2023-03-18T03:53:38;101479.44;;;3.94;83.13
71857;BME280;63344;46.980;28.882;2023-03-18T03:56:06;101485.56;;;3.93;83.13
71857;BME280;63344;46.980;28.882;2023-03-18T03:58:35;101471.50;;;3.85;83.61
71857;BME280;63344;46.980;28.882;2023-03-18T04:01:02;101482.03;;;3.91;83.74
71857;BME280;63344;46.980;28.882;2023-03-18T04:03:33;101475.03;;;3.90;83.63
71857;BME280;63344;46.980;28.882;2023-03-18T04:06:00;101474.19;;;3.90;83.80
71857;BME280;63344;46.980;28.882;2023-03-18T04:08:27;101474.16;;;3.93;83.57
71857;BME280;63344;46.980;28.882;2023-03-18T04:10:55;101475.03;;;3.90;83.75
71857;BME280;63344;46.980;28.882;2023-03-18T04:13:22;101476.78;;;3.87;83.87
71857;BME280;63344;46.980;28.882;2023-03-18T04:15:50;101487.34;;;3.96;84.02
71857;BME280;63344;46.980;28.882;2023-03-18T04:18:18;101482.94;;;3.95;83.85
71857;BME280;63344;46.980;28.882;2023-03-18T04:20:45;101489.97;;;4.01;83.97
71857;BME280;63344;46.980;28.882;2023-03-18T04:23:15;101485.56;;;4.01;83.86
71857;BME280;63344;46.980;28.882;2023-03-18T04:25:42;101482.94;;;4.03;83.96
71857;BME280;63344;46.980;28.882;2023-03-18T04:28:10;101486.44;;;3.97;83.91
71857;BME280;63344;46.980;28.882;2023-03-18T04:30:37;101484.69;;;3.94;83.88
71857;BME280;63344;46.980;28.882;2023-03-18T04:33:04;101484.69;;;3.93;84.50
71857;BME280;63344;46.980;28.882;2023-03-18T04:35:32;101491.72;;;3.94;84.44
71857;BME280;63344;46.980;28.882;2023-03-18T04:38:00;101483.81;;;3.92;84.94
71857;BME280;63344;46.980;28.882;2023-03-18T04:40:28;101487.28;;;3.91;84.92
71857;BME280;63344;46.980;28.882;2023-03-18T04:42:55;101489.91;;;3.91;85.08
71857;BME280;63344;46.980;28.882;2023-03-18T04:45:23;101487.31;;;3.94;85.26
71857;BME280;63344;46.980;28.882;2023-03-18T04:47:50;101488.19;;;3.92;85.47
71857;BME280;63344;46.980;28.882;2023-03-18T04:50:18;101495.19;;;3.93;85.42
71857;BME280;63344;46.980;28.882;2023-03-18T04:52:46;101505.69;;;3.93;85.85
71857;BME280;63344;46.980;28.882;2023-03-18T04:55:14;101506.59;;;3.90;86.05
71857;BME280;63344;46.980;28.882;2023-03-18T04:57:43;101508.34;;;3.93;86.43
71857;BME280;63344;46.980;28.882;2023-03-18T05:00:14;101508.34;;;3.94;86.30
71857;BME280;63344;46.980;28.882;2023-03-18T05:02:44;101501.31;;;3.93;86.38
71857;BME280;63344;46.980;28.882;2023-03-18T05:05:31;101506.59;;;3.95;86.45
71857;BME280;63344;46.980;28.882;2023-03-18T05:08:04;101501.31;;;3.93;86.83
71857;BME280;63344;46.980;28.882;2023-03-18T05:10:31;101496.94;;;3.91;86.89
71857;BME280;63344;46.980;28.882;2023-03-18T05:12:59;101515.34;;;3.92;87.17
71857;BME280;63344;46.980;28.882;2023-03-18T05:15:28;101522.34;;;3.95;87.33
71857;BME280;63344;46.980;28.882;2023-03-18T05:18:04;101524.09;;;3.94;87.57
71857;BME280;63344;46.980;28.882;2023-03-18T05:20:31;101508.34;;;3.93;87.91
71857;BME280;63344;46.980;28.882;2023-03-18T05:22:59;101505.72;;;3.90;87.83
71857;BME280;63344;46.980;28.882;2023-03-18T05:25:31;101509.22;;;3.90;87.98
71857;BME280;63344;46.980;28.882;2023-03-18T05:28:01;101510.97;;;3.96;88.36
71857;BME280;63344;46.980;28.882;2023-03-18T05:30:28;101512.72;;;3.88;88.46
71857;BME280;63344;46.980;28.882;2023-03-18T05:32:57;101520.63;;;3.94;89.05
71857;BME280;63344;46.980;28.882;2023-03-18T05:35:24;101518.81;;;3.85;88.99
71857;BME280;63344;46.980;28.882;2023-03-18T05:38:02;101517.97;;;3.86;89.53
71857;BME280;63344;46.980;28.882;2023-03-18T05:40:29;101517.97;;;3.92;89.41
71857;BME280;63344;46.980;28.882;2023-03-18T05:42:58;101525.00;;;3.96;89.57
71857;BME280;63344;46.980;28.882;2023-03-18T05:45:35;101524.13;;;3.96;89.51
71857;BME280;63344;46.980;28.882;2023-03-18T05:48:07;101524.97;;;3.93;90.01
71857;BME280;63344;46.980;28.882;2023-03-18T05:50:37;101533.75;;;3.94;90.12
71857;BME280;63344;46.980;28.882;2023-03-18T05:53:09;101531.97;;;3.91;90.45
71857;BME280;63344;46.980;28.882;2023-03-18T05:55:48;101531.97;;;3.93;90.35
71857;BME280;63344;46.980;28.882;2023-03-18T05:58:19;101538.09;;;3.93;90.55
71857;BME280;63344;46.980;28.882;2023-03-18T06:00:47;101541.66;;;3.95;90.24
71857;BME280;63344;46.980;28.882;2023-03-18T06:03:16;101539.00;;;3.94;90.63
71857;BME280;63344;46.980;28.882;2023-03-18T06:05:44;101543.41;;;3.98;91.13
71857;BME280;63344;46.980;28.882;2023-03-18T06:08:13;101546.91;;;3.95;90.90
71857;BME280;63344;46.980;28.882;2023-03-18T06:10:41;101556.50;;;3.95;90.89
71857;BME280;63344;46.980;28.882;2023-03-18T06:13:10;101567.06;;;3.99;91.41
71857;BME280;63344;46.980;28.882;2023-03-18T06:15:37;101538.13;;;3.96;91.14
71857;BME280;63344;46.980;28.882;2023-03-18T06:18:05;101549.53;;;4.05;91.19
71857;BME280;63344;46.980;28.882;2023-03-18T06:20:32;101551.31;;;3.99;91.27
71857;BME280;63344;46.980;28.882;2023-03-18T06:22:59;101567.97;;;4.08;91.24
71857;BME280;63344;46.980;28.882;2023-03-18T06:25:27;101570.59;;;4.08;91.14
71857;BME280;63344;46.980;28.882;2023-03-18T06:27:55;101563.56;;;4.07;91.20
71857;BME280;63344;46.980;28.882;2023-03-18T06:30:22;101568.84;;;4.13;91.01
71857;BME280;63344;46.980;28.882;2023-03-18T06:32:50;101570.59;;;4.17;90.69
71857;BME280;63344;46.980;28.882;2023-03-18T06:35:17;101566.22;;;4.19;90.49
71857;BME280;63344;46.980;28.882;2023-03-18T06:37:45;101552.19;;;4.11;90.58
71857;BME280;63344;46.980;28.882;2023-03-18T06:40:12;101568.88;;;4.17;90.80
71857;BME280;63344;46.980;28.882;2023-03-18T06:42:40;101554.84;;;4.14;90.84
71857;BME280;63344;46.980;28.882;2023-03-18T06:45:07;101555.72;;;4.21;90.92
71857;BME280;63344;46.980;28.882;2023-03-18T06:47:36;101556.59;;;4.27;90.10
71857;BME280;63344;46.980;28.882;2023-03-18T06:50:04;101538.22;;;4.24;90.30
71857;BME280;63344;46.980;28.882;2023-03-18T06:52:32;101554.00;;;4.26;90.07
71857;BME280;63344;46.980;28.882;2023-03-18T06:54:59;101554.88;;;4.37;89.96
71857;BME280;63344;46.980;28.882;2023-03-18T06:57:26;101542.59;;;4.33;89.27
71857;BME280;63344;46.980;28.882;2023-03-18T06:59:54;101559.28;;;4.39;88.90
71857;BME280;63344;46.980;28.882;2023-03-18T07:02:22;101555.78;;;4.44;88.89
71857;BME280;63344;46.980;28.882;2023-03-18T07:04:50;101556.66;;;4.44;88.68
71857;BME280;63344;46.980;28.882;2023-03-18T07:07:19;101551.41;;;4.50;88.44
71857;BME280;63344;46.980;28.882;2023-03-18T07:09:48;101560.19;;;4.62;88.13
71857;BME280;63344;46.980;28.882;2023-03-18T07:12:17;101555.78;;;4.62;87.90
71857;BME280;63344;46.980;28.882;2023-03-18T07:14:46;101548.78;;;4.70;87.24
71857;BME280;63344;46.980;28.882;2023-03-18T07:17:13;101552.28;;;4.63;87.40
71857;BME280;63344;46.980;28.882;2023-03-18T07:19:41;101547.91;;;4.73;87.41
71857;BME280;63344;46.980;28.882;2023-03-18T07:22:09;101549.69;;;4.75;86.46
71857;BME280;63344;46.980;28.882;2023-03-18T07:24:36;101552.31;;;4.80;86.19
71857;BME280;63344;46.980;28.882;2023-03-18T07:27:03;101545.28;;;4.81;85.86
71857;BME280;63344;46.980;28.882;2023-03-18T07:29:31;101557.56;;;4.82;85.74
71857;BME280;63344;46.980;28.882;2023-03-18T07:32:00;101554.06;;;4.79;85.68
71857;BME280;63344;46.980;28.882;2023-03-18T07:34:27;101563.69;;;4.79;85.50
71857;BME280;63344;46.980;28.882;2023-03-18T07:36:55;101559.31;;;4.83;85.56
71857;BME280;63344;46.980;28.882;2023-03-18T07:39:23;101561.94;;;4.84;84.97
71857;BME280;63344;46.980;28.882;2023-03-18T07:41:52;101557.56;;;4.88;84.59
71857;BME280;63344;46.980;28.882;2023-03-18T07:44:21;101564.59;;;4.92;84.52
71857;BME280;63344;46.980;28.882;2023-03-18T07:46:56;101560.19;;;4.91;84.91
71857;BME280;63344;46.980;28.882;2023-03-18T07:49:25;101570.72;;;4.98;84.77
71857;BME280;63344;46.980;28.882;2023-03-18T07:51:56;101570.69;;;4.97;84.59
71857;BME280;63344;46.980;28.882;2023-03-18T07:54:23;101573.34;;;5.03;84.29
71857;BME280;63344;46.980;28.882;2023-03-18T07:56:51;101569.84;;;5.04;84.06
71857;BME280;63344;46.980;28.882;2023-03-18T07:59:19;101574.22;;;5.07;84.37
71857;BME280;63344;46.980;28.882;2023-03-18T08:01:50;101580.38;;;5.12;84.33
71857;BME280;63344;46.980;28.882;2023-03-18T08:04:17;101581.25;;;5.14;84.13
71857;BME280;63344;46.980;28.882;2023-03-18T08:06:45;101584.72;;;5.27;83.51
71857;BME280;63344;46.980;28.882;2023-03-18T08:09:13;101583.84;;;5.26;83.54
71857;BME280;63344;46.980;28.882;2023-03-18T08:11:40;101583.84;;;5.32;83.05
71857;BME280;63344;46.980;28.882;2023-03-18T08:14:08;101575.06;;;5.30;82.65
71857;BME280;63344;46.980;28.882;2023-03-18T08:16:35;101581.22;;;5.25;83.15
71857;BME280;63344;46.980;28.882;2023-03-18T08:19:03;101578.59;;;5.26;83.23
71857;BME280;63344;46.980;28.882;2023-03-18T08:21:30;101582.09;;;5.27;83.49
71857;BME280;63344;46.980;28.882;2023-03-18T08:23:57;101580.34;;;5.30;83.33
71857;BME280;63344;46.980;28.882;2023-03-18T08:26:25;101576.81;;;5.37;82.66
71857;BME280;63344;46.980;28.882;2023-03-18T08:28:53;101587.31;;;5.48;82.11
71857;BME280;63344;46.980;28.882;2023-03-18T08:31:21;101594.34;;;5.45;82.36
71857;BME280;63344;46.980;28.882;2023-03-18T08:33:48;101589.06;;;5.51;82.34
71857;BME280;63344;46.980;28.882;2023-03-18T08:36:15;101589.06;;;5.57;81.92
71857;BME280;63344;46.980;28.882;2023-03-18T08:38:42;101585.56;;;5.59;81.38
71857;BME280;63344;46.980;28.882;2023-03-18T08:41:10;101582.03;;;5.62;81.72
71857;BME280;63344;46.980;28.882;2023-03-18T08:43:37;101587.31;;;5.64;81.45
71857;BME280;63344;46.980;28.882;2023-03-18T08:46:05;101576.75;;;5.59;81.16
71857;BME280;63344;46.980;28.882;2023-03-18T08:48:36;101591.69;;;5.68;81.59
71857;BME280;63344;46.980;28.882;2023-03-18T08:51:22;101585.50;;;5.73;81.34
71857;BME280;63344;46.980;28.882;2023-03-18T08:53:49;101580.22;;;5.75;80.23
71857;BME280;63344;46.980;28.882;2023-03-18T08:56:18;101593.41;;;5.79;79.93
71857;BME280;63344;46.980;28.882;2023-03-18T08:58:46;101584.63;;;5.74;80.33
71857;BME280;63344;46.980;28.882;2023-03-18T09:01:14;101600.44;;;5.77;80.39
71857;BME280;63344;46.980;28.882;2023-03-18T09:03:43;101584.63;;;5.77;80.16
71857;BME280;63344;46.980;28.882;2023-03-18T09:06:17;101589.84;;;5.87;80.35
71857;BME280;63344;46.980;28.882;2023-03-18T09:08:48;101597.72;;;5.94;80.12
71857;BME280;63344;46.980;28.882;2023-03-18T09:11:15;101593.34;;;5.93;79.41
71857;BME280;63344;46.980;28.882;2023-03-18T09:13:44;101603.91;;;5.98;78.60
71857;BME280;63344;46.980;28.882;2023-03-18T09:16:11;101595.09;;;5.93;78.94
71857;BME280;63344;46.980;28.882;2023-03-18T09:18:39;101604.75;;;5.92;78.63
71857;BME280;63344;46.980;28.882;2023-03-18T09:21:10;101601.25;;;5.95;79.23
71857;BME280;63344;46.980;28.882;2023-03-18T09:23:38;101599.50;;;5.98;78.73
71857;BME280;63344;46.980;28.882;2023-03-18T09:26:08;101613.50;;;6.16;78.75
71857;BME280;63344;46.980;28.882;2023-03-18T09:28:35;101604.66;;;6.28;78.70
71857;BME280;63344;46.980;28.882;2023-03-18T09:31:03;101609.84;;;6.40;76.96
71857;BME280;63344;46.980;28.882;2023-03-18T09:33:33;101605.44;;;6.44;77.13
71857;BME280;63344;46.980;28.882;2023-03-18T09:36:03;101607.13;;;6.52;76.78
71857;BME280;63344;46.980;28.882;2023-03-18T09:38:30;101607.13;;;6.57;76.30
71857;BME280;63344;46.980;28.882;2023-03-18T09:44:29;101598.25;;;6.66;76.03
71857;BME280;63344;46.980;28.882;2023-03-18T09:47:13;101599.06;;;6.77;75.60
71857;BME280;63344;46.980;28.882;2023-03-18T09:49:58;101602.59;;;6.76;75.51
71857;BME280;63344;46.980;28.882;2023-03-18T09:53:04;101595.53;;;6.78;75.15
71857;BME280;63344;46.980;28.882;2023-03-18T09:55:46;101589.38;;;6.76;75.30
71857;BME280;63344;46.980;28.882;2023-03-18T09:58:47;101590.31;;;6.72;75.26
71857;BME280;63344;46.980;28.882;2023-03-18T10:01:25;101592.88;;;6.78;75.16
71857;BME280;63344;46.980;28.882;2023-03-18T10:04:15;101596.34;;;6.85;75.07
71857;BME280;63344;46.980;28.882;2023-03-18T10:06:43;101590.19;;;6.87;74.55
71857;BME280;63344;46.980;28.882;2023-03-18T10:09:19;101598.06;;;6.90;74.64
71857;BME280;63344;46.980;28.882;2023-03-18T10:12:15;101595.50;;;6.83;74.91
71857;BME280;63344;46.980;28.882;2023-03-18T10:14:46;101590.25;;;6.78;75.16
71857;BME280;63344;46.980;28.882;2023-03-18T10:18:09;101585.88;;;6.72;75.42
71857;BME280;63344;46.980;28.882;2023-03-18T10:26:20;101599.09;;;6.74;75.83
71857;BME280;63344;46.980;28.882;2023-03-18T10:34:05;101579.63;;;6.86;75.21
71857;BME280;63344;46.980;28.882;2023-03-18T10:39:13;101577.78;;;6.97;74.54
71857;BME280;63344;46.980;28.882;2023-03-18T10:41:50;101585.63;;;7.05;73.89
71857;BME280;63344;46.980;28.882;2023-03-18T10:44:30;101582.22;;;6.93;73.81
71857;BME280;63344;46.980;28.882;2023-03-18T10:47:21;101574.31;;;6.89;74.26
71857;BME280;63344;46.980;28.882;2023-03-18T10:50:16;101583.06;;;6.97;74.23
71857;BME280;63344;46.980;28.882;2023-03-18T10:52:59;101591.81;;;7.05;73.98
71857;BME280;63344;46.980;28.882;2023-03-18T10:55:33;101584.75;;;7.03;73.64
71857;BME280;63344;46.980;28.882;2023-03-18T10:58:15;101580.44;;;6.97;73.66
71857;BME280;63344;46.980;28.882;2023-03-18T11:00:44;101582.97;;;7.09;73.78
71857;BME280;63344;46.980;28.882;2023-03-18T11:05:50;101581.13;;;7.16;72.96
71857;BME280;63344;46.980;28.882;2023-03-18T11:08:35;101566.22;;;7.10;72.73
71857;BME280;63344;46.980;28.882;2023-03-18T11:13:52;101582.91;;;7.12;73.60
71857;BME280;63344;46.980;28.882;2023-03-18T11:24:31;101568.66;;;7.29;72.64
71857;BME280;63344;46.980;28.882;2023-03-18T11:27:02;101573.06;;;7.31;72.68
71857;BME280;63344;46.980;28.882;2023-03-18T11:29:32;101571.28;;;7.32;72.38
71857;BME280;63344;46.980;28.882;2023-03-18T11:32:00;101568.66;;;7.32;72.39
71857;BME280;63344;46.980;28.882;2023-03-18T11:34:36;101564.25;;;7.31;72.29
71857;BME280;63344;46.980;28.882;2023-03-18T11:37:05;101567.84;;;7.24;72.21
71857;BME280;63344;46.980;28.882;2023-03-18T11:39:47;101572.22;;;7.28;72.64
71857;BME280;63344;46.980;28.882;2023-03-18T11:42:25;101563.38;;;7.32;71.75
71857;BME280;63344;46.980;28.882;2023-03-18T11:45:00;101561.56;;;7.37;72.33
71857;BME280;63344;46.980;28.882;2023-03-18T11:47:31;101555.31;;;7.43;72.05
71857;BME280;63344;46.980;28.882;2023-03-18T11:50:03;101556.13;;;7.51;71.97
71857;BME280;63344;46.980;28.882;2023-03-18T11:55:42;101556.00;;;7.60;71.49
71857;BME280;63344;46.980;28.882;2023-03-18T11:58:38;101574.50;;;7.62;71.49
71857;BME280;63344;46.980;28.882;2023-03-18T12:01:19;101577.16;;;7.60;71.25
71857;BME280;63344;46.980;28.882;2023-03-18T12:06:30;101548.06;;;7.62;71.36
71857;BME280;63344;46.980;28.882;2023-03-18T12:09:47;101556.09;;;7.52;71.22
71857;BME280;63344;46.980;28.882;2023-03-18T12:19:47;101550.88;;;7.45;71.56
71857;BME280;63344;46.980;28.882;2023-03-18T12:25:11;101565.00;;;7.45;71.83
71857;BME280;63344;46.980;28.882;2023-03-18T12:27:54;101564.88;;;7.54;71.71
71857;BME280;63344;46.980;28.882;2023-03-18T12:41:17;101555.09;;;7.63;71.08
71857;BME280;63344;46.980;28.882;2023-03-18T12:47:29;101563.00;;;7.67;71.17
71857;BME280;63344;46.980;28.882;2023-03-18T12:50:05;101569.22;;;7.62;71.24
71857;BME280;63344;46.980;28.882;2023-03-18T12:52:44;101555.13;;;7.61;70.96
71857;BME280;63344;46.980;28.882;2023-03-18T12:55:29;101556.03;;;7.58;71.40
71857;BME280;63344;46.980;28.882;2023-03-18T12:58:06;101570.09;;;7.62;71.40
71857;BME280;63344;46.980;28.882;2023-03-18T13:00:44;101556.00;;;7.62;70.68
71857;BME280;63344;46.980;28.882;2023-03-18T13:03:37;101556.09;;;7.52;71.28
71857;BME280;63344;46.980;28.882;2023-03-18T13:14:56;101553.50;;;7.51;71.38
71857;BME280;63344;46.980;28.882;2023-03-18T13:17:40;101551.75;;;7.47;71.68
71857;BME280;63344;46.980;28.882;2023-03-18T13:20:45;101558.75;;;7.52;71.68
71857;BME280;63344;46.980;28.882;2023-03-18T13:35:17;101547.28;;;7.53;71.38
71857;BME280;63344;46.980;28.882;2023-03-18T13:44:00;101546.47;;;7.47;72.02
71857;BME280;63344;46.980;28.882;2023-03-18T13:46:31;101542.91;;;7.51;71.55
71857;BME280;63344;46.980;28.882;2023-03-18T13:49:01;101535.94;;;7.42;72.01
71857;BME280;63344;46.980;28.882;2023-03-18T13:54:02;101538.53;;;7.48;71.78
71857;BME280;63344;46.980;28.882;2023-03-18T13:56:52;101536.75;;;7.50;71.90
71857;BME280;63344;46.980;28.882;2023-03-18T14:02:26;101539.44;;;7.47;72.03
71857;BME280;63344;46.980;28.882;2023-03-18T14:04:58;101536.81;;;7.44;71.65
71857;BME280;63344;46.980;28.882;2023-03-18T14:07:45;101529.00;;;7.35;71.89
71857;BME280;63344;46.980;28.882;2023-03-18T14:10:25;101547.44;;;7.41;71.76
71857;BME280;63344;46.980;28.882;2023-03-18T14:12:54;101535.94;;;7.42;72.11
71857;BME280;63344;46.980;28.882;2023-03-18T14:15:36;101548.28;;;7.43;72.19
71857;BME280;63344;46.980;28.882;2023-03-18T14:18:17;101539.44;;;7.44;72.00
71857;BME280;63344;46.980;28.882;2023-03-18T14:20:51;101531.59;;;7.40;71.66
71857;BME280;63344;46.980;28.882;2023-03-18T14:23:36;101545.66;;;7.40;72.04
71857;BME280;63344;46.980;28.882;2023-03-18T14:26:20;101536.88;;;7.36;71.82
71857;BME280;63344;46.980;28.882;2023-03-18T14:31:49;101525.44;;;7.36;71.78
71857;BME280;63344;46.980;28.882;2023-03-18T14:34:25;101526.31;;;7.38;71.59
71857;BME280;63344;46.980;28.882;2023-03-18T14:39:43;101536.00;;;7.37;72.07
71857;BME280;63344;46.980;28.882;2023-03-18T14:44:52;101522.88;;;7.30;72.10
71857;BME280;63344;46.980;28.882;2023-03-18T14:50:27;101522.88;;;7.30;72.54
71857;BME280;63344;46.980;28.882;2023-03-18T14:55:51;101520.25;;;7.27;72.49
71857;BME280;63344;46.980;28.882;2023-03-18T14:58:22;101528.16;;;7.28;72.46
71857;BME280;63344;46.980;28.882;2023-03-18T15:01:00;101523.78;;;7.27;72.51
71857;BME280;63344;46.980;28.882;2023-03-18T15:03:47;101525.53;;;7.28;72.07
71857;BME280;63344;46.980;28.882;2023-03-18T15:06:24;101526.41;;;7.29;72.23